Time;durP1;ratioP1;P1;durP2;ratioP2;P2;SDS_P1;SDS_P2;PMS_P1;PMS_P2;Temp;Humidity;BMP_temperature;BMP_pressure;BME280_temperature;BME280_humidity;BME280_pressure;Samples;Min_cycle;Max_cycle;Signal;HPM_P1;HPM_P2
2023/10/15 00:03:11;;;;;;;5.78;0.60;;;;;;;5.60;100.00;101450.91;10378689;28;20033;-73
2023/10/15 00:08:12;;;;;;;8.00;1.80;;;;;;;5.56;100.00;101448.78;10392009;28;20037;-73
2023/10/15 00:13:13;;;;;;;6.03;0.75;;;;;;;5.57;100.00;101459.50;10397293;28;20521;-73
2023/10/15 00:18:13;;;;;;;3.67;1.20;;;;;;;5.67;100.00;101486.44;10394733;28;20453;-74
2023/10/15 00:23:14;;;;;;;3.65;0.93;;;;;;;5.84;100.00;101481.41;10398040;28;20033;-77
2023/10/15 00:28:15;;;;;;;4.63;1.10;;;;;;;5.91;100.00;101484.13;10393207;28;20481;-74
2023/10/15 00:33:16;;;;;;;6.85;1.35;;;;;;;5.85;100.00;101478.47;10390190;28;20045;-73
2023/10/15 00:38:17;;;;;;;3.38;1.10;;;;;;;5.77;100.00;101472.38;10390926;28;20038;-73
2023/10/15 00:43:17;;;;;;;10.77;1.35;;;;;;;5.64;100.00;101473.16;10399198;28;20053;-72
2023/10/15 00:48:27;;;;;;;6.88;1.40;;;;;;;5.48;100.00;101468.94;10373435;28;20057;-69
2023/10/15 00:53:28;;;;;;;8.45;0.90;;;;;;;5.38;100.00;101454.84;10383663;28;20477;-72
2023/10/15 00:58:33;;;;;;;4.55;2.40;;;;;;;5.32;100.00;101440.13;10398041;28;20068;-74
2023/10/15 01:03:34;;;;;;;8.13;1.33;;;;;;;5.30;100.00;101433.19;10386002;28;20058;-73
2023/10/15 01:08:40;;;;;;;3.90;0.80;;;;;;;5.29;100.00;101431.50;10406072;28;20041;-74
2023/10/15 01:13:40;;;;;;;6.20;1.08;;;;;;;5.36;100.00;101432.38;10400526;28;20038;-73
2023/10/15 01:18:41;;;;;;;5.50;0.70;;;;;;;5.43;100.00;101427.75;10403426;28;20041;-73
2023/10/15 01:28:43;;;;;;;7.18;0.80;;;;;;;5.60;100.00;101444.59;10404632;28;20057;-73
2023/10/15 01:33:46;;;;;;;3.35;0.85;;;;;;;5.64;100.00;101462.25;10389649;28;20041;-76
2023/10/15 01:38:55;;;;;;;2.60;0.50;;;;;;;5.75;100.00;101479.94;10383504;28;20095;-73
2023/10/15 01:44:01;;;;;;;4.97;0.77;;;;;;;5.70;100.00;101471.50;10402992;28;20052;-77
2023/10/15 01:49:06;;;;;;;1.95;0.70;;;;;;;5.73;100.00;101479.31;10400457;28;20042;-76
2023/10/15 01:54:09;;;;;;;4.63;0.50;;;;;;;5.76;100.00;101482.44;10402875;28;20041;-74
2023/10/15 01:59:11;;;;;;;6.38;1.50;;;;;;;5.91;100.00;101476.78;10401131;28;20060;-77
2023/10/15 02:04:26;;;;;;;5.72;1.20;;;;;;;5.98;100.00;101474.94;10397238;28;20144;-72
2023/10/15 02:09:29;;;;;;;13.13;2.15;;;;;;;6.02;100.00;101461.69;10399518;28;20030;-74
2023/10/15 02:14:30;;;;;;;3.50;0.88;;;;;;;6.01;100.00;101501.84;10400227;28;20046;-72
2023/10/15 02:24:34;;;;;;;2.58;0.57;;;;;;;6.01;100.00;101451.81;10401538;28;20061;-72
2023/10/15 02:29:35;;;;;;;4.05;0.85;;;;;;;5.94;100.00;101462.72;10399101;28;20069;-72
2023/10/15 02:34:40;;;;;;;3.40;0.70;;;;;;;5.81;100.00;101458.06;10388714;28;20038;-73
2023/10/15 02:39:44;;;;;;;3.97;0.50;;;;;;;5.62;100.00;101456.13;10394648;28;20038;-74
2023/10/15 02:44:45;;;;;;;2.28;0.80;;;;;;;5.53;100.00;101455.50;10398474;28;20042;-73
2023/10/15 02:49:54;;;;;;;4.55;1.30;;;;;;;5.46;100.00;101454.66;10398037;28;20049;-73
2023/10/15 02:54:54;;;;;;;13.40;1.30;;;;;;;5.37;100.00;101464.91;10401270;28;20482;-73
2023/10/15 02:59:55;;;;;;;5.28;0.90;;;;;;;5.45;100.00;101492.03;10397558;28;20034;-73
2023/10/15 03:04:56;;;;;;;3.60;1.35;;;;;;;5.54;100.00;101489.09;10396597;28;20045;-73
2023/10/15 03:09:56;;;;;;;4.78;0.98;;;;;;;5.47;100.00;101495.38;10394229;28;20030;-74
2023/10/15 03:14:57;;;;;;;5.20;1.42;;;;;;;5.63;100.00;101513.31;10401138;28;20498;-74
2023/10/15 03:20:10;;;;;;;3.90;1.05;;;;;;;5.74;100.00;101506.38;10394475;28;20068;-73
2023/10/15 03:25:13;;;;;;;5.30;0.77;;;;;;;5.82;100.00;101508.09;10389480;28;20105;-73
2023/10/15 03:30:14;;;;;;;2.72;0.90;;;;;;;5.78;100.00;101491.25;10382808;28;20083;-74
2023/10/15 03:35:18;;;;;;;4.95;1.48;;;;;;;5.85;100.00;101519.47;10385729;28;20402;-73
2023/10/15 03:40:32;;;;;;;1.38;0.63;;;;;;;5.89;100.00;101519.03;10393511;28;20041;-71
2023/10/15 03:45:33;;;;;;;6.25;1.10;;;;;;;5.88;100.00;101533.75;10399286;28;20041;-72
2023/10/15 03:50:35;;;;;;;3.80;0.70;;;;;;;5.77;100.00;101516.91;10394375;28;20104;-74
2023/10/15 03:55:36;;;;;;;4.35;0.65;;;;;;;5.75;100.00;101497.16;10382844;28;20050;-71
2023/10/15 04:00:46;;;;;;;5.20;0.63;;;;;;;5.71;100.00;101492.31;10393153;28;20038;-72
2023/10/15 04:05:53;;;;;;;8.13;1.70;;;;;;;5.72;100.00;101492.09;10385349;28;20057;-72
2023/10/15 04:10:57;;;;;;;1.77;0.75;;;;;;;5.72;100.00;101508.50;10383868;28;20044;-71
2023/10/15 04:15:58;;;;;;;5.00;0.60;;;;;;;5.70;100.00;101505.13;10393127;28;20050;-71
2023/10/15 04:20:58;;;;;;;3.60;0.52;;;;;;;5.72;100.00;101508.50;10400460;28;20044;-71
2023/10/15 04:26:02;;;;;;;3.15;0.85;;;;;;;5.75;100.00;101519.03;10392182;28;20046;-71
2023/10/15 04:31:11;;;;;;;2.05;0.55;;;;;;;5.77;100.00;101516.09;10399414;28;20040;-72
2023/10/15 04:36:12;;;;;;;4.18;1.02;;;;;;;5.66;100.00;101490.19;10373923;28;20047;-71
2023/10/15 04:41:21;;;;;;;3.63;0.47;;;;;;;5.62;100.00;101489.78;10370558;28;20031;-71
2023/10/15 04:46:25;;;;;;;4.72;0.80;;;;;;;5.68;100.00;101473.59;10389689;28;20038;-72
2023/10/15 04:51:38;;;;;;;3.35;0.40;;;;;;;5.70;100.00;101471.50;10379678;28;20083;-71
2023/10/15 04:56:38;;;;;;;3.15;0.57;;;;;;;5.53;100.00;101485.53;10392831;28;20045;-71
2023/10/15 05:01:39;;;;;;;3.67;0.95;;;;;;;5.42;100.00;101476.06;10387039;28;20041;-71
2023/10/15 05:06:39;;;;;;;2.38;1.50;;;;;;;5.31;100.00;101465.72;10392343;28;20035;-72
2023/10/15 05:11:40;;;;;;;3.00;0.98;;;;;;;5.23;100.00;101465.94;10397344;28;20042;-71
2023/10/15 05:16:40;;;;;;;2.67;0.70;;;;;;;5.23;100.00;101466.75;10389709;28;20038;-71
2023/10/15 05:21:41;;;;;;;4.53;0.70;;;;;;;5.19;100.00;101462.75;10382216;28;20038;-71
2023/10/15 05:26:44;;;;;;;4.28;0.60;;;;;;;5.21;100.00;101478.94;10398475;28;20044;-71
2023/10/15 05:31:44;;;;;;;2.55;0.80;;;;;;;5.21;100.00;101479.78;10390359;28;20045;-72
2023/10/15 05:36:45;;;;;;;7.72;0.90;;;;;;;4.95;100.00;101434.09;10378953;28;20072;-72
2023/10/15 05:41:45;;;;;;;2.08;1.02;;;;;;;5.15;100.00;101485.22;10389668;28;20084;-72
2023/10/15 05:46:46;;;;;;;2.88;0.75;;;;;;;5.19;100.00;101497.41;10395379;28;20421;-72
2023/10/15 05:51:46;;;;;;;6.15;0.90;;;;;;;5.27;100.00;101505.41;10396968;28;20100;-72
2023/10/15 05:56:47;;;;;;;3.88;0.75;;;;;;;5.30;100.00;101523.28;10402782;28;20472;-72
2023/10/15 06:01:47;;;;;;;3.17;0.80;;;;;;;5.34;100.00;101530.03;10401524;28;20034;-71
2023/10/15 06:06:48;;;;;;;4.45;0.70;;;;;;;5.42;100.00;101529.84;10399053;28;20045;-72
2023/10/15 06:11:49;;;;;;;4.15;0.82;;;;;;;5.36;100.00;101515.13;10401208;28;20046;-72
2023/10/15 06:16:52;;;;;;;3.83;0.75;;;;;;;5.42;100.00;101524.38;10399315;28;20038;-73
2023/10/15 06:21:53;;;;;;;4.55;0.55;;;;;;;5.47;100.00;101530.91;10402841;28;20041;-71
2023/10/15 06:26:54;;;;;;;4.50;0.57;;;;;;;5.42;100.00;101533.41;10397614;28;20050;-71
2023/10/15 06:31:55;;;;;;;2.40;0.52;;;;;;;5.40;100.00;101540.13;10381460;28;20031;-71
2023/10/15 06:36:55;;;;;;;2.97;0.55;;;;;;;5.36;100.00;101536.97;10396349;28;20037;-71
2023/10/15 06:41:55;;;;;;;4.80;0.47;;;;;;;5.45;100.00;101543.91;10395932;28;20038;-71
2023/10/15 06:46:56;;;;;;;2.50;0.35;;;;;;;5.65;100.00;101567.75;10402920;28;20041;-72
2023/10/15 06:51:57;;;;;;;1.08;0.52;;;;;;;5.80;100.00;101573.88;10397177;28;20038;-71
2023/10/15 06:56:57;;;;;;;4.82;0.90;;;;;;;5.78;100.00;101607.94;10399572;28;20041;-71
2023/10/15 07:01:58;;;;;;;6.50;0.90;;;;;;;5.82;100.00;101623.69;10396017;28;20057;-71
2023/10/15 07:06:59;;;;;;;1.83;0.43;;;;;;;5.64;100.00;101598.81;10399873;28;20052;-75
2023/10/15 07:11:59;;;;;;;4.10;0.30;;;;;;;5.57;100.00;101592.50;10396743;28;20061;-71
2023/10/15 07:17:00;;;;;;;8.45;0.60;;;;;;;5.52;100.00;101595.00;10398139;28;20489;-72
2023/10/15 07:22:00;;;;;;;2.38;0.40;;;;;;;5.45;100.00;101612.19;10397058;28;20498;-71
2023/10/15 07:27:04;;;;;;;7.53;0.50;;;;;;;5.40;100.00;101606.50;10396550;28;20065;-72
2023/10/15 07:32:04;;;;;;;1.33;0.90;;;;;;;5.39;100.00;101602.06;10397650;28;20419;-72
2023/10/15 07:37:05;;;;;;;6.68;1.00;;;;;;;5.66;100.00;101622.19;10391874;28;20049;-71
2023/10/15 07:42:06;;;;;;;4.65;1.17;;;;;;;5.99;100.00;101620.63;10393383;28;20067;-75
2023/10/15 07:47:07;;;;;;;7.72;1.67;;;;;;;6.23;100.00;101630.16;10393264;28;20042;-74
2023/10/15 07:52:07;;;;;;;3.25;1.20;;;;;;;6.53;100.00;101644.34;10401026;28;20033;-72
2023/10/15 07:57:10;;;;;;;2.55;1.05;;;;;;;6.60;100.00;101656.09;10392549;28;20045;-75
2023/10/15 08:02:12;;;;;;;5.35;0.55;;;;;;;6.60;100.00;101642.44;10397368;28;20125;-71
2023/10/15 08:07:13;;;;;;;1.75;0.60;;;;;;;6.64;100.00;101638.22;10398554;28;20045;-72
2023/10/15 08:12:14;;;;;;;6.35;0.45;;;;;;;6.66;100.00;101633.38;10392813;28;20038;-72
2023/10/15 08:17:14;;;;;;;6.60;0.82;;;;;;;6.60;100.00;101639.69;10391199;28;20092;-75
2023/10/15 08:22:15;;;;;;;0.75;0.32;;;;;;;6.47;100.00;101647.91;10397013;28;20080;-74
2023/10/15 08:27:15;;;;;;;0.80;0.50;;;;;;;6.38;100.00;101654.59;10394607;28;20042;-72
2023/10/15 08:32:18;;;;;;;6.10;0.45;;;;;;;6.52;100.00;101667.25;10381528;28;20048;-73
2023/10/15 08:37:20;;;;;;;1.27;0.45;;;;;;;6.88;100.00;101668.75;10382702;28;20053;-71
2023/10/15 08:42:23;;;;;;;1.60;0.30;;;;;;;7.07;100.00;101698.03;10395438;28;20045;-73
2023/10/15 08:47:25;;;;;;;7.32;0.85;;;;;;;7.10;100.00;101704.16;10358876;28;20049;-71
2023/10/15 08:52:27;;;;;;;2.55;0.50;;;;;;;7.37;100.00;101724.97;10366114;28;20046;-71
2023/10/15 08:57:29;;;;;;;2.45;0.32;;;;;;;7.67;100.00;101758.25;10385899;28;20046;-70
2023/10/15 09:02:30;;;;;;;2.53;0.40;;;;;;;7.53;100.00;101783.16;10399833;28;20059;-72
2023/10/15 09:07:33;;;;;;;2.40;0.60;;;;;;;6.64;100.00;101780.50;10398110;28;20045;-76
2023/10/15 09:12:34;;;;;;;2.72;0.75;;;;;;;6.26;100.00;101761.88;10400581;28;20045;-73
2023/10/15 09:17:34;;;;;;;4.22;0.65;;;;;;;5.95;100.00;101721.31;10397955;28;20037;-72
2023/10/15 09:22:37;;;;;;;4.43;1.05;;;;;;;6.12;100.00;101743.72;10380044;28;20034;-71
2023/10/15 09:27:44;;;;;;;2.08;0.60;;;;;;;6.29;100.00;101759.78;10384876;28;20050;-72
2023/10/15 09:32:48;;;;;;;6.80;1.00;;;;;;;6.30;100.00;101748.59;10404684;28;20052;-71
2023/10/15 09:37:48;;;;;;;7.00;0.80;;;;;;;6.18;100.00;101766.66;10403972;28;20053;-71
2023/10/15 09:42:53;;;;;;;4.30;0.80;;;;;;;6.21;100.00;101767.09;10406130;28;20041;-72
2023/10/15 09:48:00;;;;;;;3.83;1.17;;;;;;;6.10;100.00;101764.09;10402940;28;20457;-72
2023/10/15 09:53:01;;;;;;;4.30;1.48;;;;;;;6.45;100.00;101768.47;10364173;28;20176;-72
2023/10/15 09:58:06;;;;;;;1.58;0.50;;;;;;;7.00;100.00;101768.38;10390612;28;20108;-75
2023/10/15 10:03:26;;;;;;;3.72;0.75;;;;;;;7.53;100.00;101777.66;10387818;28;20041;-74
2023/10/15 10:08:46;;;;;;;4.07;0.50;;;;;;;7.99;100.00;101788.53;10380745;28;20421;-75
2023/10/15 10:14:08;;;;;;;3.65;0.82;;;;;;;8.35;100.00;101791.81;10384546;28;20128;-74
2023/10/15 10:19:09;;;;;;;1.27;0.40;;;;;;;8.66;100.00;101794.66;10381251;28;20041;-74
2023/10/15 10:24:09;;;;;;;1.17;0.70;;;;;;;8.93;100.00;101793.66;10385213;28;20045;-74
2023/10/15 10:29:10;;;;;;;6.95;1.42;;;;;;;8.88;100.00;101786.91;10380658;28;20061;-74
2023/10/15 10:34:14;;;;;;;4.47;0.52;;;;;;;9.26;100.00;101787.91;10392045;28;20042;-75
2023/10/15 10:39:14;;;;;;;9.77;0.90;;;;;;;9.62;100.00;101789.13;10397667;28;20037;-76
2023/10/15 10:44:23;;;;;;;4.60;1.02;;;;;;;9.93;100.00;101803.84;10374584;28;20836;-76
2023/10/15 10:49:35;;;;;;;4.03;0.68;;;;;;;10.03;100.00;101806.91;10400063;28;20502;-76
2023/10/15 10:54:36;;;;;;;5.47;0.40;;;;;;;10.26;100.00;101808.97;10397832;28;20107;-76
2023/10/15 10:59:41;;;;;;;1.55;0.75;;;;;;;9.82;100.00;101817.28;10404707;28;20046;-76
2023/10/15 11:04:41;;;;;;;3.45;0.70;;;;;;;9.03;100.00;101841.56;10404577;28;20858;-82
2023/10/15 11:09:42;;;;;;;2.45;0.52;;;;;;;8.53;100.00;101824.06;10400059;28;20053;-80
2023/10/15 11:14:43;;;;;;;2.22;0.50;;;;;;;9.00;100.00;101838.41;10401614;28;20045;-78
2023/10/15 11:19:43;;;;;;;3.13;0.40;;;;;;;9.56;100.00;101842.25;10381415;28;20056;-77
2023/10/15 11:24:44;;;;;;;3.97;0.35;;;;;;;9.12;100.00;101846.81;10376587;28;20053;-76
2023/10/15 11:29:44;;;;;;;3.17;0.40;;;;;;;8.52;100.00;101847.09;10401288;28;20053;-77
2023/10/15 11:34:45;;;;;;;3.35;0.60;;;;;;;8.20;100.00;101834.06;10384403;28;20062;-77
2023/10/15 11:39:48;;;;;;;4.22;0.40;;;;;;;7.99;100.00;101845.28;10399239;28;20042;-77
2023/10/15 11:44:55;;;;;;;4.05;0.45;;;;;;;8.62;100.00;101847.44;10393085;28;20164;-77
2023/10/15 11:49:57;;;;;;;7.32;0.95;;;;;;;9.06;100.00;101838.38;10392643;28;20120;-77
2023/10/15 11:54:57;;;;;;;2.75;0.55;;;;;;;9.26;100.00;101846.50;10392866;28;20042;-77
2023/10/15 11:59:58;;;;;;;5.85;0.90;;;;;;;9.49;100.00;101865.13;10393686;28;20038;-77
2023/10/15 12:05:01;;;;;;;1.40;0.70;;;;;;;8.60;100.00;101898.97;10352589;28;20079;-78
2023/10/15 12:10:12;;;;;;;1.27;0.40;;;;;;;7.43;100.00;101855.63;10352679;28;20046;-79
2023/10/15 12:15:12;;;;;;;2.38;0.52;;;;;;;7.12;100.00;101855.38;10354739;28;20081;-80
2023/10/15 12:20:13;;;;;;;4.00;0.57;;;;;;;6.98;100.00;101879.97;10354879;28;20101;-79
2023/10/15 12:25:13;;;;;;;2.13;0.43;;;;;;;7.18;100.00;101884.69;10354473;28;20050;-79
2023/10/15 12:30:23;;;;;;;2.95;1.00;;;;;;;8.14;100.00;101867.81;10355202;28;20049;-79
2023/10/15 12:35:24;;;;;;;2.90;0.30;;;;;;;9.90;100.00;101865.63;10355304;28;20557;-79
2023/10/15 12:40:30;;;;;;;5.28;0.63;;;;;;;11.40;100.00;101850.47;10353807;28;20049;-78
2023/10/15 12:45:30;;;;;;;6.13;1.20;;;;;;;12.24;100.00;101853.09;10355287;28;20434;-78
2023/10/15 12:50:31;;;;;;;2.70;0.60;;;;;;;11.55;100.00;101854.72;10356635;28;20045;-79
2023/10/15 12:55:31;;;;;;;3.00;0.63;;;;;;;10.24;100.00;101872.50;10357219;28;20045;-78
2023/10/15 13:00:32;;;;;;;4.10;1.17;;;;;;;9.59;100.00;101880.28;10358057;28;20048;-80
2023/10/15 13:05:33;;;;;;;5.13;0.80;;;;;;;9.35;100.00;101891.03;10363725;28;20050;-80
2023/10/15 13:10:33;;;;;;;4.35;0.55;;;;;;;9.16;100.00;101903.00;10361969;28;20053;-76
2023/10/15 13:15:34;;;;;;;4.45;0.60;;;;;;;8.93;100.00;101911.75;10361409;28;20524;-80
2023/10/15 13:20:34;;;;;;;2.47;0.60;;;;;;;8.66;100.00;101898.97;10358239;28;20541;-78
2023/10/15 13:25:35;;;;;;;3.80;0.60;;;;;;;8.33;100.00;101918.25;10357936;28;20073;-78
2023/10/15 13:30:35;;;;;;;4.55;0.68;;;;;;;8.16;100.00;101915.09;10358611;28;20054;-79
2023/10/15 13:35:35;;;;;;;3.50;0.57;;;;;;;9.06;100.00;101919.94;10359827;28;20081;-82
2023/10/15 13:40:36;;;;;;;2.20;0.35;;;;;;;10.80;100.00;101916.63;10355536;28;20050;-77
2023/10/15 13:45:37;;;;;;;2.05;0.35;;;;;;;11.80;100.00;101901.41;10358712;28;20041;-78
2023/10/15 13:50:38;;;;;;;1.20;0.40;;;;;;;12.21;100.00;101892.22;10355241;28;20362;-77
2023/10/15 13:55:39;;;;;;;3.53;1.58;;;;;;;12.69;100.00;101891.09;10395474;28;20109;-75
2023/10/15 14:00:40;;;;;;;3.75;0.70;;;;;;;13.45;100.00;101901.19;10405842;28;20038;-78
2023/10/15 14:05:40;;;;;;;3.08;0.68;;;;;;;13.61;100.00;101921.66;10408581;28;20665;-77
2023/10/15 14:10:41;;;;;;;4.25;1.02;;;;;;;12.59;100.00;101931.44;10400810;28;20041;-75
2023/10/15 14:15:41;;;;;;;3.20;0.60;;;;;;;11.05;100.00;101944.91;10405631;28;20041;-74
2023/10/15 14:20:42;;;;;;;2.13;0.63;;;;;;;10.18;100.00;101942.22;10387394;28;20037;-74
2023/10/15 14:25:45;;;;;;;7.72;1.17;;;;;;;9.80;100.00;101937.66;10384108;28;20037;-74
2023/10/15 14:30:45;;;;;;;3.80;0.57;;;;;;;11.14;100.00;101926.16;10378249;28;20038;-73
2023/10/15 14:35:46;;;;;;;3.80;0.57;;;;;;;12.24;100.00;101905.56;10382922;28;20041;-74
2023/10/15 14:40:47;;;;;;;4.07;0.60;;;;;;;13.04;100.00;101900.34;10384430;28;20042;-72
2023/10/15 14:45:47;;;;;;;6.68;0.90;;;;;;;12.22;100.00;101909.66;10383245;28;20406;-74
2023/10/15 14:50:48;;;;;;;4.15;1.35;;;;;;;10.91;100.00;101943.38;10379491;28;20042;-73
2023/10/15 14:55:48;;;;;;;5.43;0.73;;;;;;;10.60;100.00;101941.63;10382215;28;20041;-73
2023/10/15 15:00:49;;;;;;;4.00;0.60;;;;;;;11.21;100.00;101943.44;10388674;28;20057;-74
2023/10/15 15:05:49;;;;;;;3.78;0.60;;;;;;;11.67;100.00;101947.44;10385585;28;20103;-74
2023/10/15 15:10:55;;;;;;;4.22;1.20;;;;;;;11.51;100.00;101943.44;10383382;28;20042;-75
2023/10/15 15:15:56;;;;;;;4.63;0.50;;;;;;;10.97;100.00;101945.22;10399287;28;20064;-74
2023/10/15 15:21:01;;;;;;;7.38;0.70;;;;;;;10.38;100.00;101952.25;10392240;28;20041;-73
2023/10/15 15:26:08;;;;;;;4.25;0.80;;;;;;;9.79;100.00;101946.97;10387513;28;20064;-73
2023/10/15 15:31:09;;;;;;;5.60;1.50;;;;;;;9.52;100.00;101948.22;10382175;28;20487;-74
2023/10/15 15:36:10;;;;;;;3.92;1.63;;;;;;;9.36;100.00;101968.81;10376778;28;20045;-73
2023/10/15 15:41:10;;;;;;;3.72;0.80;;;;;;;9.18;100.00;101953.06;10374878;28;20041;-72
2023/10/15 15:46:12;;;;;;;1.13;0.38;;;;;;;9.08;100.00;101959.84;10404267;28;20131;-72
2023/10/15 15:51:12;;;;;;;6.05;0.80;;;;;;;8.85;100.00;101963.13;10387266;28;20311;-72
2023/10/15 15:56:13;;;;;;;7.97;0.82;;;;;;;8.75;100.00;101983.84;10392218;28;20041;-72
2023/10/15 16:01:18;;;;;;;1.98;0.68;;;;;;;8.62;100.00;101985.56;10399324;28;20494;-72
2023/10/15 16:06:18;;;;;;;2.88;0.60;;;;;;;8.56;100.00;101991.91;10390388;28;20060;-71
2023/10/15 16:11:19;;;;;;;5.90;0.90;;;;;;;8.47;100.00;102006.91;10374235;28;20042;-72
2023/10/15 16:16:19;;;;;;;4.38;0.43;;;;;;;8.13;100.00;102013.44;10380958;28;20041;-73
2023/10/15 16:21:20;;;;;;;6.38;0.70;;;;;;;7.89;100.00;102002.84;10376693;28;20038;-72
2023/10/15 16:26:20;;;;;;;4.90;1.30;;;;;;;7.61;100.00;102021.38;10382756;28;20041;-72
2023/10/15 16:31:21;;;;;;;3.67;1.33;;;;;;;7.43;100.00;102024.66;10381167;28;20061;-72
2023/10/15 16:36:21;;;;;;;5.07;1.15;;;;;;;7.23;100.00;102030.91;10394996;28;20044;-73
2023/10/15 16:41:22;;;;;;;4.55;0.63;;;;;;;7.05;100.00;102028.72;10398084;28;20047;-71
2023/10/15 16:46:22;;;;;;;4.03;0.75;;;;;;;6.91;100.00;102037.06;10396271;28;20065;-72
2023/10/15 16:51:23;;;;;;;6.63;1.63;;;;;;;6.83;100.00;102035.31;10390937;28;20050;-73
2023/10/15 16:56:23;;;;;;;7.70;1.38;;;;;;;6.73;100.00;102051.25;10396591;28;20046;-73
2023/10/15 17:01:25;;;;;;;6.55;0.95;;;;;;;6.60;100.00;102052.03;10391672;28;20045;-72
2023/10/15 17:06:25;;;;;;;3.25;0.88;;;;;;;6.51;100.00;102067.75;10395366;28;20101;-73
2023/10/15 17:11:28;;;;;;;4.18;1.45;;;;;;;6.51;100.00;102080.56;10394729;28;20052;-74
2023/10/15 17:16:28;;;;;;;4.05;0.73;;;;;;;6.51;100.00;102084.16;10391118;28;20430;-72
2023/10/15 17:21:29;;;;;;;5.47;0.80;;;;;;;6.65;100.00;102120.66;10392133;28;20038;-74
2023/10/15 17:26:29;;;;;;;4.88;1.67;;;;;;;6.79;100.00;102127.09;10388382;28;20038;-82
2023/10/15 17:31:30;;;;;;;2.38;0.43;;;;;;;6.65;100.00;102121.50;10395362;28;20038;-76
2023/10/15 17:36:31;;;;;;;1.92;0.60;;;;;;;6.38;100.00;102092.22;10400514;28;20038;-74
2023/10/15 17:41:31;;;;;;;1.42;0.38;;;;;;;6.19;100.00;102094.59;10391799;28;20037;-77
2023/10/15 17:46:32;;;;;;;1.10;0.40;;;;;;;6.06;100.00;102089.00;10357193;28;20572;-77
2023/10/15 17:51:32;;;;;;;1.00;0.47;;;;;;;5.92;100.00;102095.31;10362670;28;20041;-76
2023/10/15 17:56:33;;;;;;;8.32;0.85;;;;;;;5.76;100.00;102082.72;10363008;28;20054;-77
2023/10/15 18:01:34;;;;;;;3.22;0.68;;;;;;;5.58;100.00;102088.59;10363734;28;20064;-77
2023/10/15 18:06:36;;;;;;;2.30;0.50;;;;;;;5.50;100.00;102096.91;10361936;28;20658;-79
2023/10/15 18:11:37;;;;;;;2.85;0.70;;;;;;;5.50;100.00;102111.44;10364157;28;20057;-78
2023/10/15 18:16:37;;;;;;;2.45;0.47;;;;;;;5.54;100.00;102111.88;10384992;28;20049;-76
2023/10/15 18:21:38;;;;;;;2.63;0.63;;;;;;;5.46;100.00;102110.13;10403843;28;20087;-77
2023/10/15 18:26:38;;;;;;;5.47;1.73;;;;;;;5.37;100.00;102111.25;10403775;28;20048;-78
2023/10/15 18:31:39;;;;;;;4.70;1.85;;;;;;;5.25;100.00;102113.63;10400754;28;20409;-78
2023/10/15 18:36:40;;;;;;;4.95;1.55;;;;;;;5.07;100.00;102115.88;10399447;28;20498;-77
2023/10/15 18:41:40;;;;;;;3.70;1.08;;;;;;;5.10;100.00;102120.94;10403291;28;20061;-76
2023/10/15 18:46:41;;;;;;;4.00;1.50;;;;;;;5.20;100.00;102138.75;10397224;28;20460;-77
2023/10/15 18:51:42;;;;;;;7.40;1.30;;;;;;;5.33;100.00;102148.16;10395010;28;20033;-80
2023/10/15 18:56:42;;;;;;;6.70;1.20;;;;;;;5.47;100.00;102134.50;10395584;28;20057;-76
2023/10/15 19:01:43;;;;;;;11.75;1.58;;;;;;;5.64;100.00;102118.78;10399055;28;20037;-75
2023/10/15 19:06:46;;;;;;;4.05;1.02;;;;;;;5.64;100.00;102120.63;10399001;28;20041;-76
2023/10/15 19:11:47;;;;;;;2.40;0.85;;;;;;;5.58;100.00;102114.06;10399252;28;20040;-75
2023/10/15 19:16:48;;;;;;;7.57;1.20;;;;;;;5.47;100.00;102123.56;10397699;28;20081;-76
2023/10/15 19:21:49;;;;;;;5.78;0.90;;;;;;;5.38;100.00;102123.88;10400907;28;20096;-75
2023/10/15 19:26:51;;;;;;;5.68;1.50;;;;;;;5.33;100.00;102121.69;10398729;28;20053;-75
2023/10/15 19:31:52;;;;;;;5.13;1.70;;;;;;;5.35;100.00;102119.63;10399660;28;20038;-76
2023/10/15 19:36:53;;;;;;;12.15;1.75;;;;;;;5.45;100.00;102125.63;10404427;28;20045;-77
2023/10/15 19:41:53;;;;;;;7.05;1.33;;;;;;;5.42;100.00;102126.03;10397498;28;20041;-76
2023/10/15 19:46:54;;;;;;;4.13;1.80;;;;;;;5.40;100.00;102128.09;10397235;28;20049;-76
2023/10/15 19:51:56;;;;;;;7.85;1.55;;;;;;;5.49;100.00;102136.19;10398993;28;20041;-76
2023/10/15 19:56:56;;;;;;;3.60;0.85;;;;;;;5.53;100.00;102146.56;10401129;28;20038;-77
2023/10/15 20:01:57;;;;;;;3.78;1.58;;;;;;;5.55;100.00;102149.09;10397913;28;20076;-76
2023/10/15 20:06:57;;;;;;;7.15;1.33;;;;;;;5.56;100.00;102158.97;10397614;28;20092;-75
2023/10/15 20:11:59;;;;;;;7.40;1.48;;;;;;;5.61;100.00;102167.47;10395850;28;20076;-77
2023/10/15 20:17:02;;;;;;;13.35;1.75;;;;;;;5.64;100.00;102169.81;10392057;28;20060;-77
2023/10/15 20:22:09;;;;;;;6.28;1.33;;;;;;;5.63;100.00;102166.22;10394675;28;20041;-77
2023/10/15 20:27:13;;;;;;;8.05;1.63;;;;;;;5.68;100.00;102164.81;10393813;28;20049;-77
2023/10/15 20:32:14;;;;;;;7.35;1.42;;;;;;;5.67;100.00;102166.72;10388969;28;20060;-76
2023/10/15 20:37:14;;;;;;;4.38;1.35;;;;;;;5.54;100.00;102161.94;10394731;28;20049;-76
2023/10/15 20:42:15;;;;;;;6.38;1.17;;;;;;;5.44;100.00;102156.75;10396250;28;20092;-76
2023/10/15 20:47:15;;;;;;;4.38;0.95;;;;;;;5.37;100.00;102155.78;10393499;28;20053;-76
2023/10/15 20:52:16;;;;;;;4.95;1.13;;;;;;;5.31;100.00;102156.53;10396682;28;20100;-76
2023/10/15 20:57:17;;;;;;;5.68;1.33;;;;;;;5.30;100.00;102157.59;10394992;28;20042;-76
2023/10/15 21:02:17;;;;;;;5.18;0.90;;;;;;;5.32;100.00;102158.25;10395012;28;20053;-76
2023/10/15 21:07:17;;;;;;;3.47;0.80;;;;;;;5.36;100.00;102166.91;10397742;28;20046;-76
2023/10/15 21:12:18;;;;;;;5.32;1.92;;;;;;;5.42;100.00;102175.19;10391927;28;20062;-75
2023/10/15 21:17:18;;;;;;;10.55;2.38;;;;;;;5.46;100.00;102165.59;10383304;28;20045;-73
2023/10/15 21:22:19;;;;;;;2.85;1.15;;;;;;;5.41;100.00;102156.25;10392155;28;20049;-75
2023/10/15 21:27:19;;;;;;;4.97;1.95;;;;;;;5.14;100.00;102116.81;10385955;28;20052;-76
2023/10/15 21:32:20;;;;;;;10.10;1.33;;;;;;;5.37;100.00;102153.06;10405654;28;20049;-75
2023/10/15 21:37:20;;;;;;;11.20;3.10;;;;;;;5.45;100.00;102163.88;10403331;28;20034;-75
2023/10/15 21:42:21;;;;;;;3.30;1.33;;;;;;;5.55;100.00;102165.50;10399342;28;20038;-76
2023/10/15 21:47:22;;;;;;;5.28;1.85;;;;;;;5.65;100.00;102155.13;10396802;28;20486;-75
2023/10/15 21:52:23;;;;;;;11.32;1.80;;;;;;;5.73;100.00;102165.13;10400300;28;20099;-74
2023/10/15 21:57:23;;;;;;;5.72;1.48;;;;;;;5.73;100.00;102154.19;10398468;28;20639;-75
2023/10/15 22:02:24;;;;;;;6.30;1.48;;;;;;;5.71;100.00;102162.56;10397370;28;20046;-74
2023/10/15 22:07:24;;;;;;;6.05;1.55;;;;;;;5.67;100.00;102155.78;10392944;28;20076;-75
2023/10/15 22:12:26;;;;;;;3.28;0.85;;;;;;;5.76;100.00;102165.56;10406666;28;20121;-70
2023/10/15 22:17:27;;;;;;;6.53;1.10;;;;;;;5.85;100.00;102163.59;10402702;28;20048;-75
2023/10/15 22:22:27;;;;;;;5.55;1.20;;;;;;;5.93;100.00;102157.13;10401903;28;20064;-76
2023/10/15 22:27:28;;;;;;;5.85;1.05;;;;;;;5.96;100.00;102162.28;10402873;28;20809;-74
2023/10/15 22:32:29;;;;;;;9.90;1.60;;;;;;;5.90;100.00;102155.66;10403171;28;20038;-76
2023/10/15 22:37:29;;;;;;;2.85;1.42;;;;;;;5.94;100.00;102145.19;10399733;28;20049;-76
2023/10/15 22:42:30;;;;;;;7.60;1.23;;;;;;;5.98;100.00;102150.09;10400885;28;20038;-76
2023/10/15 22:47:31;;;;;;;5.47;1.00;;;;;;;6.04;100.00;102145.75;10401961;28;20128;-75
2023/10/15 22:52:35;;;;;;;6.65;1.20;;;;;;;5.98;100.00;102139.16;10401045;28;20118;-76
2023/10/15 22:57:37;;;;;;;7.05;0.90;;;;;;;5.71;100.00;102107.06;10399045;28;20030;-76
2023/10/15 23:02:39;;;;;;;5.85;1.80;;;;;;;5.68;100.00;102140.22;10398654;28;20050;-75
2023/10/15 23:07:40;;;;;;;6.20;1.00;;;;;;;5.60;100.00;102132.97;10401725;28;20046;-75
2023/10/15 23:12:42;;;;;;;8.93;1.77;;;;;;;5.59;100.00;102125.84;10406400;28;20037;-75
2023/10/15 23:17:46;;;;;;;3.65;0.95;;;;;;;5.54;100.00;102123.69;10399520;28;20037;-76